sensor_id;sensor_type;location;lat;lon;timestamp;P1;durP1;ratioP1;P2;durP2;ratioP2
66628;SDS011;53532;53.084;6.352;2022-09-29T00:00:24;55.37;;;5.33;;
66628;SDS011;53532;53.084;6.352;2022-09-29T00:02:51;44.10;;;4.67;;
66628;SDS011;53532;53.084;6.352;2022-09-29T00:05:17;43.75;;;5.30;;
66628;SDS011;53532;53.084;6.352;2022-09-29T00:07:43;10.98;;;4.32;;
66628;SDS011;53532;53.084;6.352;2022-09-29T00:10:09;6.93;;;3.72;;
66628;SDS011;53532;53.084;6.352;2022-09-29T00:12:37;27.67;;;5.22;;
66628;SDS011;53532;53.084;6.352;2022-09-29T00:15:04;75.07;;;8.18;;
66628;SDS011;53532;53.084;6.352;2022-09-29T00:17:30;34.40;;;5.60;;
66628;SDS011;53532;53.084;6.352;2022-09-29T00:19:56;61.08;;;7.60;;
66628;SDS011;53532;53.084;6.352;2022-09-29T00:22:22;24.37;;;5.27;;
66628;SDS011;53532;53.084;6.352;2022-09-29T00:24:48;47.03;;;5.85;;
66628;SDS011;53532;53.084;6.352;2022-09-29T00:27:15;30.03;;;5.57;;
66628;SDS011;53532;53.084;6.352;2022-09-29T00:29:42;31.67;;;6.13;;
66628;SDS011;53532;53.084;6.352;2022-09-29T00:32:08;42.05;;;6.70;;
66628;SDS011;53532;53.084;6.352;2022-09-29T00:34:34;33.57;;;6.00;;
66628;SDS011;53532;53.084;6.352;2022-09-29T00:37:01;52.10;;;6.77;;
66628;SDS011;53532;53.084;6.352;2022-09-29T00:39:27;38.80;;;7.10;;
66628;SDS011;53532;53.084;6.352;2022-09-29T00:41:53;40.30;;;6.53;;
66628;SDS011;53532;53.084;6.352;2022-09-29T00:47:05;12.17;;;5.23;;
66628;SDS011;53532;53.084;6.352;2022-09-29T00:49:32;23.73;;;5.60;;
66628;SDS011;53532;53.084;6.352;2022-09-29T00:52:01;39.87;;;8.40;;
66628;SDS011;53532;53.084;6.352;2022-09-29T00:54:28;103.30;;;9.80;;
66628;SDS011;53532;53.084;6.352;2022-09-29T00:56:55;229.77;;;14.73;;
66628;SDS011;53532;53.084;6.352;2022-09-29T00:59:22;139.87;;;11.00;;
66628;SDS011;53532;53.084;6.352;2022-09-29T01:01:49;44.00;;;6.10;;
66628;SDS011;53532;53.084;6.352;2022-09-29T01:04:18;52.77;;;6.70;;
66628;SDS011;53532;53.084;6.352;2022-09-29T01:06:47;32.17;;;7.60;;
66628;SDS011;53532;53.084;6.352;2022-09-29T01:09:15;24.15;;;5.53;;
66628;SDS011;53532;53.084;6.352;2022-09-29T01:11:41;59.60;;;8.03;;
66628;SDS011;53532;53.084;6.352;2022-09-29T01:14:08;51.80;;;7.60;;
66628;SDS011;53532;53.084;6.352;2022-09-29T01:16:35;34.50;;;6.43;;
66628;SDS011;53532;53.084;6.352;2022-09-29T01:19:05;38.65;;;7.53;;
66628;SDS011;53532;53.084;6.352;2022-09-29T01:21:35;88.35;;;10.73;;
66628;SDS011;53532;53.084;6.352;2022-09-29T01:24:09;95.80;;;11.17;;
66628;SDS011;53532;53.084;6.352;2022-09-29T01:29:39;55.05;;;8.07;;
66628;SDS011;53532;53.084;6.352;2022-09-29T01:32:13;30.03;;;5.80;;
66628;SDS011;53532;53.084;6.352;2022-09-29T01:34:43;39.72;;;6.80;;
66628;SDS011;53532;53.084;6.352;2022-09-29T01:37:13;57.43;;;8.60;;
66628;SDS011;53532;53.084;6.352;2022-09-29T01:39:42;20.48;;;5.90;;
66628;SDS011;53532;53.084;6.352;2022-09-29T01:42:14;15.10;;;5.93;;
66628;SDS011;53532;53.084;6.352;2022-09-29T01:44:43;7.95;;;5.28;;
66628;SDS011;53532;53.084;6.352;2022-09-29T01:47:12;6.20;;;4.97;;
66628;SDS011;53532;53.084;6.352;2022-09-29T01:49:40;10.20;;;5.63;;
66628;SDS011;53532;53.084;6.352;2022-09-29T01:52:08;26.40;;;7.00;;
66628;SDS011;53532;53.084;6.352;2022-09-29T01:54:39;29.57;;;7.20;;
66628;SDS011;53532;53.084;6.352;2022-09-29T01:57:08;23.93;;;7.70;;
66628;SDS011;53532;53.084;6.352;2022-09-29T01:59:36;9.33;;;5.90;;
66628;SDS011;53532;53.084;6.352;2022-09-29T02:02:07;29.38;;;9.18;;
66628;SDS011;53532;53.084;6.352;2022-09-29T02:04:37;15.50;;;7.07;;
66628;SDS011;53532;53.084;6.352;2022-09-29T02:07:06;10.82;;;6.65;;
66628;SDS011;53532;53.084;6.352;2022-09-29T02:09:34;14.60;;;7.30;;
66628;SDS011;53532;53.084;6.352;2022-09-29T02:12:02;11.50;;;6.70;;
66628;SDS011;53532;53.084;6.352;2022-09-29T02:14:29;18.47;;;6.70;;
66628;SDS011;53532;53.084;6.352;2022-09-29T02:16:59;16.97;;;6.53;;
66628;SDS011;53532;53.084;6.352;2022-09-29T02:19:28;17.37;;;7.30;;
66628;SDS011;53532;53.084;6.352;2022-09-29T02:21:57;20.02;;;7.72;;
66628;SDS011;53532;53.084;6.352;2022-09-29T02:24:23;16.17;;;7.13;;
66628;SDS011;53532;53.084;6.352;2022-09-29T02:26:49;13.27;;;8.52;;
66628;SDS011;53532;53.084;6.352;2022-09-29T02:29:16;25.10;;;9.53;;
66628;SDS011;53532;53.084;6.352;2022-09-29T02:31:42;14.30;;;7.30;;
66628;SDS011;53532;53.084;6.352;2022-09-29T02:34:09;22.90;;;7.93;;
66628;SDS011;53532;53.084;6.352;2022-09-29T02:36:38;14.23;;;6.87;;
66628;SDS011;53532;53.084;6.352;2022-09-29T02:39:08;11.83;;;7.50;;
66628;SDS011;53532;53.084;6.352;2022-09-29T02:41:39;14.43;;;8.38;;
66628;SDS011;53532;53.084;6.352;2022-09-29T02:44:13;13.85;;;8.23;;
66628;SDS011;53532;53.084;6.352;2022-09-29T02:46:45;13.13;;;8.53;;
66628;SDS011;53532;53.084;6.352;2022-09-29T02:49:24;14.23;;;8.30;;
66628;SDS011;53532;53.084;6.352;2022-09-29T02:51:54;11.20;;;8.20;;
66628;SDS011;53532;53.084;6.352;2022-09-29T02:54:31;16.13;;;8.97;;
66628;SDS011;53532;53.084;6.352;2022-09-29T02:57:00;26.03;;;10.07;;
66628;SDS011;53532;53.084;6.352;2022-09-29T02:59:33;50.67;;;12.53;;
66628;SDS011;53532;53.084;6.352;2022-09-29T03:02:01;39.77;;;10.27;;
66628;SDS011;53532;53.084;6.352;2022-09-29T03:04:27;105.87;;;13.00;;
66628;SDS011;53532;53.084;6.352;2022-09-29T03:06:54;58.97;;;11.07;;
66628;SDS011;53532;53.084;6.352;2022-09-29T03:09:20;43.23;;;10.70;;
66628;SDS011;53532;53.084;6.352;2022-09-29T03:11:47;47.10;;;12.23;;
66628;SDS011;53532;53.084;6.352;2022-09-29T03:14:13;35.67;;;12.00;;
66628;SDS011;53532;53.084;6.352;2022-09-29T03:16:40;51.97;;;13.53;;
66628;SDS011;53532;53.084;6.352;2022-09-29T03:19:06;33.50;;;12.43;;
66628;SDS011;53532;53.084;6.352;2022-09-29T03:21:33;44.93;;;11.50;;
66628;SDS011;53532;53.084;6.352;2022-09-29T03:23:59;31.90;;;10.63;;
66628;SDS011;53532;53.084;6.352;2022-09-29T03:26:26;30.60;;;11.17;;
66628;SDS011;53532;53.084;6.352;2022-09-29T03:28:53;28.87;;;10.50;;
66628;SDS011;53532;53.084;6.352;2022-09-29T03:31:19;27.17;;;10.90;;
66628;SDS011;53532;53.084;6.352;2022-09-29T03:33:45;26.57;;;11.03;;
66628;SDS011;53532;53.084;6.352;2022-09-29T03:36:11;25.97;;;9.80;;
66628;SDS011;53532;53.084;6.352;2022-09-29T03:38:37;15.63;;;8.87;;
66628;SDS011;53532;53.084;6.352;2022-09-29T03:41:04;14.47;;;8.90;;
66628;SDS011;53532;53.084;6.352;2022-09-29T03:43:30;28.00;;;10.43;;
66628;SDS011;53532;53.084;6.352;2022-09-29T03:45:58;27.20;;;9.80;;
66628;SDS011;53532;53.084;6.352;2022-09-29T03:48:24;24.93;;;9.93;;
66628;SDS011;53532;53.084;6.352;2022-09-29T03:50:54;29.40;;;10.17;;
66628;SDS011;53532;53.084;6.352;2022-09-29T03:53:20;25.03;;;9.80;;
66628;SDS011;53532;53.084;6.352;2022-09-29T03:55:46;19.03;;;10.07;;
66628;SDS011;53532;53.084;6.352;2022-09-29T03:58:13;21.40;;;9.70;;
66628;SDS011;53532;53.084;6.352;2022-09-29T04:00:39;18.80;;;9.83;;
66628;SDS011;53532;53.084;6.352;2022-09-29T04:03:06;32.53;;;11.80;;
66628;SDS011;53532;53.084;6.352;2022-09-29T04:05:32;21.13;;;10.00;;
66628;SDS011;53532;53.084;6.352;2022-09-29T04:08:02;18.10;;;8.80;;
66628;SDS011;53532;53.084;6.352;2022-09-29T04:10:29;21.80;;;9.80;;
66628;SDS011;53532;53.084;6.352;2022-09-29T04:12:55;34.07;;;11.20;;
66628;SDS011;53532;53.084;6.352;2022-09-29T04:15:21;81.70;;;16.57;;
66628;SDS011;53532;53.084;6.352;2022-09-29T04:17:47;71.47;;;14.77;;
66628;SDS011;53532;53.084;6.352;2022-09-29T04:20:15;42.20;;;12.63;;
66628;SDS011;53532;53.084;6.352;2022-09-29T04:22:41;27.17;;;10.47;;
66628;SDS011;53532;53.084;6.352;2022-09-29T04:25:07;29.40;;;9.87;;
66628;SDS011;53532;53.084;6.352;2022-09-29T04:27:33;77.97;;;14.13;;
66628;SDS011;53532;53.084;6.352;2022-09-29T04:29:59;28.00;;;9.07;;
66628;SDS011;53532;53.084;6.352;2022-09-29T04:32:26;115.40;;;17.00;;
66628;SDS011;53532;53.084;6.352;2022-09-29T04:34:52;34.50;;;11.33;;
66628;SDS011;53532;53.084;6.352;2022-09-29T04:37:19;37.63;;;12.60;;
66628;SDS011;53532;53.084;6.352;2022-09-29T04:39:45;28.10;;;10.83;;
66628;SDS011;53532;53.084;6.352;2022-09-29T04:42:11;34.37;;;13.17;;
66628;SDS011;53532;53.084;6.352;2022-09-29T04:44:37;24.83;;;11.37;;
66628;SDS011;53532;53.084;6.352;2022-09-29T04:47:03;54.40;;;14.57;;
66628;SDS011;53532;53.084;6.352;2022-09-29T04:49:30;45.20;;;13.73;;
66628;SDS011;53532;53.084;6.352;2022-09-29T04:51:56;31.23;;;13.17;;
66628;SDS011;53532;53.084;6.352;2022-09-29T04:54:23;48.87;;;15.40;;
66628;SDS011;53532;53.084;6.352;2022-09-29T04:56:49;31.70;;;13.70;;
66628;SDS011;53532;53.084;6.352;2022-09-29T04:59:15;29.73;;;14.87;;
66628;SDS011;53532;53.084;6.352;2022-09-29T05:01:42;29.77;;;13.70;;
66628;SDS011;53532;53.084;6.352;2022-09-29T05:04:08;26.97;;;12.57;;
66628;SDS011;53532;53.084;6.352;2022-09-29T05:06:34;24.27;;;11.80;;
66628;SDS011;53532;53.084;6.352;2022-09-29T05:09:03;19.33;;;10.57;;
66628;SDS011;53532;53.084;6.352;2022-09-29T05:11:31;18.27;;;11.50;;
66628;SDS011;53532;53.084;6.352;2022-09-29T05:13:57;15.87;;;11.47;;
66628;SDS011;53532;53.084;6.352;2022-09-29T05:16:23;12.67;;;10.73;;
66628;SDS011;53532;53.084;6.352;2022-09-29T05:18:49;12.30;;;10.63;;
66628;SDS011;53532;53.084;6.352;2022-09-29T05:21:15;15.13;;;11.20;;
66628;SDS011;53532;53.084;6.352;2022-09-29T05:23:41;12.67;;;10.77;;
66628;SDS011;53532;53.084;6.352;2022-09-29T05:26:08;15.47;;;10.83;;
66628;SDS011;53532;53.084;6.352;2022-09-29T05:28:36;27.50;;;13.70;;
66628;SDS011;53532;53.084;6.352;2022-09-29T05:31:02;41.97;;;13.90;;
66628;SDS011;53532;53.084;6.352;2022-09-29T05:33:28;72.60;;;16.70;;
66628;SDS011;53532;53.084;6.352;2022-09-29T05:35:55;83.37;;;16.47;;
66628;SDS011;53532;53.084;6.352;2022-09-29T05:38:21;76.17;;;17.40;;
66628;SDS011;53532;53.084;6.352;2022-09-29T05:40:47;46.77;;;14.13;;
66628;SDS011;53532;53.084;6.352;2022-09-29T05:43:13;64.27;;;14.70;;
66628;SDS011;53532;53.084;6.352;2022-09-29T05:45:40;31.47;;;13.00;;
66628;SDS011;53532;53.084;6.352;2022-09-29T05:48:06;21.07;;;12.33;;
66628;SDS011;53532;53.084;6.352;2022-09-29T05:50:32;27.07;;;11.90;;
66628;SDS011;53532;53.084;6.352;2022-09-29T05:53:05;29.30;;;13.53;;
66628;SDS011;53532;53.084;6.352;2022-09-29T05:55:31;25.43;;;11.87;;
66628;SDS011;53532;53.084;6.352;2022-09-29T05:57:57;29.20;;;12.73;;
66628;SDS011;53532;53.084;6.352;2022-09-29T06:00:23;33.33;;;14.17;;
66628;SDS011;53532;53.084;6.352;2022-09-29T06:02:51;25.07;;;12.40;;
66628;SDS011;53532;53.084;6.352;2022-09-29T06:05:17;18.47;;;12.03;;
66628;SDS011;53532;53.084;6.352;2022-09-29T06:07:43;19.40;;;11.40;;
66628;SDS011;53532;53.084;6.352;2022-09-29T06:10:09;23.57;;;12.00;;
66628;SDS011;53532;53.084;6.352;2022-09-29T06:12:35;28.07;;;13.47;;
66628;SDS011;53532;53.084;6.352;2022-09-29T06:15:02;22.60;;;11.97;;
66628;SDS011;53532;53.084;6.352;2022-09-29T06:17:28;21.43;;;11.73;;
66628;SDS011;53532;53.084;6.352;2022-09-29T06:19:55;20.23;;;11.67;;
66628;SDS011;53532;53.084;6.352;2022-09-29T06:22:22;20.33;;;13.67;;
66628;SDS011;53532;53.084;6.352;2022-09-29T06:24:48;17.90;;;13.83;;
66628;SDS011;53532;53.084;6.352;2022-09-29T06:27:14;17.47;;;13.60;;
66628;SDS011;53532;53.084;6.352;2022-09-29T06:29:41;15.10;;;13.17;;
66628;SDS011;53532;53.084;6.352;2022-09-29T06:32:07;22.73;;;16.63;;
66628;SDS011;53532;53.084;6.352;2022-09-29T06:34:33;19.47;;;14.23;;
66628;SDS011;53532;53.084;6.352;2022-09-29T06:37:21;19.97;;;14.63;;
66628;SDS011;53532;53.084;6.352;2022-09-29T06:39:59;16.57;;;13.20;;
66628;SDS011;53532;53.084;6.352;2022-09-29T06:42:25;18.93;;;15.10;;
66628;SDS011;53532;53.084;6.352;2022-09-29T06:44:51;18.63;;;14.33;;
66628;SDS011;53532;53.084;6.352;2022-09-29T06:47:19;20.23;;;15.73;;
66628;SDS011;53532;53.084;6.352;2022-09-29T06:49:45;19.67;;;15.17;;
66628;SDS011;53532;53.084;6.352;2022-09-29T06:52:11;18.93;;;15.27;;
66628;SDS011;53532;53.084;6.352;2022-09-29T06:54:38;20.93;;;16.10;;
66628;SDS011;53532;53.084;6.352;2022-09-29T06:57:04;17.17;;;15.37;;
66628;SDS011;53532;53.084;6.352;2022-09-29T06:59:30;19.93;;;16.37;;
66628;SDS011;53532;53.084;6.352;2022-09-29T07:01:56;21.92;;;17.33;;
66628;SDS011;53532;53.084;6.352;2022-09-29T07:04:23;20.30;;;17.55;;
66628;SDS011;53532;53.084;6.352;2022-09-29T07:06:49;22.80;;;18.40;;
66628;SDS011;53532;53.084;6.352;2022-09-29T07:09:16;22.07;;;18.40;;
66628;SDS011;53532;53.084;6.352;2022-09-29T07:11:44;21.37;;;19.00;;
66628;SDS011;53532;53.084;6.352;2022-09-29T07:14:11;21.50;;;18.57;;
66628;SDS011;53532;53.084;6.352;2022-09-29T07:16:37;20.97;;;18.07;;
66628;SDS011;53532;53.084;6.352;2022-09-29T07:19:03;25.13;;;19.17;;
66628;SDS011;53532;53.084;6.352;2022-09-29T07:21:29;24.17;;;20.35;;
66628;SDS011;53532;53.084;6.352;2022-09-29T07:23:55;26.70;;;21.58;;
66628;SDS011;53532;53.084;6.352;2022-09-29T07:26:21;33.53;;;25.00;;
66628;SDS011;53532;53.084;6.352;2022-09-29T07:28:49;38.05;;;25.88;;
66628;SDS011;53532;53.084;6.352;2022-09-29T07:31:15;32.25;;;23.75;;
66628;SDS011;53532;53.084;6.352;2022-09-29T07:33:42;33.28;;;24.40;;
66628;SDS011;53532;53.084;6.352;2022-09-29T07:36:08;38.58;;;28.33;;
66628;SDS011;53532;53.084;6.352;2022-09-29T07:38:35;47.17;;;31.15;;
66628;SDS011;53532;53.084;6.352;2022-09-29T07:41:01;50.08;;;31.83;;
66628;SDS011;53532;53.084;6.352;2022-09-29T07:43:28;52.25;;;32.15;;
66628;SDS011;53532;53.084;6.352;2022-09-29T07:45:56;58.33;;;32.50;;
66628;SDS011;53532;53.084;6.352;2022-09-29T07:48:24;53.35;;;32.00;;
66628;SDS011;53532;53.084;6.352;2022-09-29T07:50:50;51.88;;;30.38;;
66628;SDS011;53532;53.084;6.352;2022-09-29T07:53:17;51.47;;;31.02;;
66628;SDS011;53532;53.084;6.352;2022-09-29T07:55:43;58.53;;;32.97;;
66628;SDS011;53532;53.084;6.352;2022-09-29T07:58:09;59.63;;;34.40;;
66628;SDS011;53532;53.084;6.352;2022-09-29T08:00:35;110.10;;;41.22;;
66628;SDS011;53532;53.084;6.352;2022-09-29T08:03:03;70.70;;;36.55;;
66628;SDS011;53532;53.084;6.352;2022-09-29T08:05:30;81.00;;;39.20;;
66628;SDS011;53532;53.084;6.352;2022-09-29T08:07:57;60.28;;;35.33;;
66628;SDS011;53532;53.084;6.352;2022-09-29T08:10:24;67.13;;;36.38;;
66628;SDS011;53532;53.084;6.352;2022-09-29T08:12:51;68.63;;;36.55;;
66628;SDS011;53532;53.084;6.352;2022-09-29T08:15:18;58.60;;;34.05;;
66628;SDS011;53532;53.084;6.352;2022-09-29T08:17:45;56.45;;;34.55;;
66628;SDS011;53532;53.084;6.352;2022-09-29T08:20:12;57.03;;;35.75;;
66628;SDS011;53532;53.084;6.352;2022-09-29T08:22:38;40.47;;;28.73;;
66628;SDS011;53532;53.084;6.352;2022-09-29T08:25:06;44.22;;;28.67;;
66628;SDS011;53532;53.084;6.352;2022-09-29T08:27:32;43.65;;;28.92;;
66628;SDS011;53532;53.084;6.352;2022-09-29T08:29:58;40.88;;;29.40;;
66628;SDS011;53532;53.084;6.352;2022-09-29T08:32:25;34.35;;;26.45;;
66628;SDS011;53532;53.084;6.352;2022-09-29T08:34:51;31.05;;;25.67;;
66628;SDS011;53532;53.084;6.352;2022-09-29T08:37:18;31.20;;;24.95;;
66628;SDS011;53532;53.084;6.352;2022-09-29T08:39:44;27.33;;;22.33;;
66628;SDS011;53532;53.084;6.352;2022-09-29T08:42:13;25.17;;;21.05;;
66628;SDS011;53532;53.084;6.352;2022-09-29T08:44:42;26.15;;;22.05;;
66628;SDS011;53532;53.084;6.352;2022-09-29T08:47:12;21.08;;;17.90;;
66628;SDS011;53532;53.084;6.352;2022-09-29T08:49:40;20.52;;;18.27;;
66628;SDS011;53532;53.084;6.352;2022-09-29T08:52:08;18.65;;;15.95;;
66628;SDS011;53532;53.084;6.352;2022-09-29T08:54:38;19.90;;;16.35;;
66628;SDS011;53532;53.084;6.352;2022-09-29T08:57:05;16.30;;;13.27;;
66628;SDS011;53532;53.084;6.352;2022-09-29T08:59:32;18.15;;;13.50;;
66628;SDS011;53532;53.084;6.352;2022-09-29T09:04:50;13.18;;;11.27;;
66628;SDS011;53532;53.084;6.352;2022-09-29T09:07:23;15.02;;;11.27;;
66628;SDS011;53532;53.084;6.352;2022-09-29T09:10:04;14.95;;;11.13;;
66628;SDS011;53532;53.084;6.352;2022-09-29T09:12:43;14.73;;;11.07;;
66628;SDS011;53532;53.084;6.352;2022-09-29T09:15:19;11.75;;;8.85;;
66628;SDS011;53532;53.084;6.352;2022-09-29T09:17:53;12.98;;;8.82;;
66628;SDS011;53532;53.084;6.352;2022-09-29T09:20:29;11.90;;;8.40;;
66628;SDS011;53532;53.084;6.352;2022-09-29T09:22:57;10.93;;;8.32;;
66628;SDS011;53532;53.084;6.352;2022-09-29T09:25:28;11.32;;;8.52;;
66628;SDS011;53532;53.084;6.352;2022-09-29T09:28:04;11.00;;;8.50;;
66628;SDS011;53532;53.084;6.352;2022-09-29T09:30:34;10.35;;;7.53;;
66628;SDS011;53532;53.084;6.352;2022-09-29T09:33:04;9.20;;;6.55;;
66628;SDS011;53532;53.084;6.352;2022-09-29T09:35:33;9.45;;;6.18;;
66628;SDS011;53532;53.084;6.352;2022-09-29T09:38:01;9.57;;;6.63;;
66628;SDS011;53532;53.084;6.352;2022-09-29T09:40:32;8.60;;;6.38;;
66628;SDS011;53532;53.084;6.352;2022-09-29T09:43:04;8.32;;;5.90;;
66628;SDS011;53532;53.084;6.352;2022-09-29T09:45:32;9.73;;;6.90;;
66628;SDS011;53532;53.084;6.352;2022-09-29T09:48:01;9.55;;;5.65;;
66628;SDS011;53532;53.084;6.352;2022-09-29T09:50:31;8.85;;;6.00;;
66628;SDS011;53532;53.084;6.352;2022-09-29T09:52:58;8.05;;;5.55;;
66628;SDS011;53532;53.084;6.352;2022-09-29T09:55:26;8.30;;;5.32;;
66628;SDS011;53532;53.084;6.352;2022-09-29T09:58:04;7.95;;;5.70;;
66628;SDS011;53532;53.084;6.352;2022-09-29T10:00:33;9.05;;;5.30;;
66628;SDS011;53532;53.084;6.352;2022-09-29T10:03:01;7.25;;;4.65;;
66628;SDS011;53532;53.084;6.352;2022-09-29T10:05:29;6.63;;;4.22;;
66628;SDS011;53532;53.084;6.352;2022-09-29T10:07:58;7.95;;;4.45;;
66628;SDS011;53532;53.084;6.352;2022-09-29T10:10:25;6.30;;;3.60;;
66628;SDS011;53532;53.084;6.352;2022-09-29T10:12:54;5.32;;;3.30;;
66628;SDS011;53532;53.084;6.352;2022-09-29T10:15:23;6.18;;;3.40;;
66628;SDS011;53532;53.084;6.352;2022-09-29T10:17:53;7.22;;;2.92;;
66628;SDS011;53532;53.084;6.352;2022-09-29T10:20:27;4.85;;;3.20;;
66628;SDS011;53532;53.084;6.352;2022-09-29T10:25:20;5.38;;;2.70;;
66628;SDS011;53532;53.084;6.352;2022-09-29T10:27:48;7.07;;;3.33;;
66628;SDS011;53532;53.084;6.352;2022-09-29T10:30:16;6.13;;;3.17;;
66628;SDS011;53532;53.084;6.352;2022-09-29T10:32:44;5.63;;;3.25;;
66628;SDS011;53532;53.084;6.352;2022-09-29T10:35:15;5.78;;;3.60;;
66628;SDS011;53532;53.084;6.352;2022-09-29T10:37:42;6.60;;;3.53;;
66628;SDS011;53532;53.084;6.352;2022-09-29T10:40:13;6.28;;;3.70;;
66628;SDS011;53532;53.084;6.352;2022-09-29T10:42:39;7.55;;;4.78;;
66628;SDS011;53532;53.084;6.352;2022-09-29T10:45:10;7.70;;;4.75;;
66628;SDS011;53532;53.084;6.352;2022-09-29T10:47:36;5.90;;;3.83;;
66628;SDS011;53532;53.084;6.352;2022-09-29T10:50:10;6.32;;;3.67;;
66628;SDS011;53532;53.084;6.352;2022-09-29T10:52:36;5.68;;;2.80;;
66628;SDS011;53532;53.084;6.352;2022-09-29T10:55:13;5.10;;;3.40;;
66628;SDS011;53532;53.084;6.352;2022-09-29T10:57:41;7.07;;;3.20;;
66628;SDS011;53532;53.084;6.352;2022-09-29T11:00:22;6.32;;;3.88;;
66628;SDS011;53532;53.084;6.352;2022-09-29T11:02:50;7.65;;;3.70;;
66628;SDS011;53532;53.084;6.352;2022-09-29T11:05:20;5.97;;;3.10;;
66628;SDS011;53532;53.084;6.352;2022-09-29T11:07:48;6.05;;;3.00;;
66628;SDS011;53532;53.084;6.352;2022-09-29T11:10:25;6.03;;;3.13;;
66628;SDS011;53532;53.084;6.352;2022-09-29T11:12:52;4.80;;;2.60;;
66628;SDS011;53532;53.084;6.352;2022-09-29T11:15:22;3.42;;;1.88;;
66628;SDS011;53532;53.084;6.352;2022-09-29T11:17:48;4.35;;;2.13;;
66628;SDS011;53532;53.084;6.352;2022-09-29T11:20:15;4.13;;;2.15;;
66628;SDS011;53532;53.084;6.352;2022-09-29T11:22:46;4.72;;;2.40;;
66628;SDS011;53532;53.084;6.352;2022-09-29T11:25:27;4.78;;;2.63;;
66628;SDS011;53532;53.084;6.352;2022-09-29T11:28:05;4.03;;;2.20;;
66628;SDS011;53532;53.084;6.352;2022-09-29T11:30:38;3.55;;;1.80;;
66628;SDS011;53532;53.084;6.352;2022-09-29T11:33:13;4.03;;;1.52;;
66628;SDS011;53532;53.084;6.352;2022-09-29T11:35:44;3.25;;;1.40;;
66628;SDS011;53532;53.084;6.352;2022-09-29T11:38:17;2.05;;;1.48;;
66628;SDS011;53532;53.084;6.352;2022-09-29T11:40:48;3.35;;;1.67;;
66628;SDS011;53532;53.084;6.352;2022-09-29T11:43:29;3.08;;;1.63;;
66628;SDS011;53532;53.084;6.352;2022-09-29T11:45:59;2.97;;;1.60;;
66628;SDS011;53532;53.084;6.352;2022-09-29T11:48:40;2.03;;;1.15;;
66628;SDS011;53532;53.084;6.352;2022-09-29T11:51:12;3.67;;;1.55;;
66628;SDS011;53532;53.084;6.352;2022-09-29T11:53:45;3.95;;;1.88;;
66628;SDS011;53532;53.084;6.352;2022-09-29T11:56:21;3.15;;;1.42;;
66628;SDS011;53532;53.084;6.352;2022-09-29T11:58:52;2.92;;;1.73;;
66628;SDS011;53532;53.084;6.352;2022-09-29T12:01:25;4.05;;;1.70;;
66628;SDS011;53532;53.084;6.352;2022-09-29T12:03:59;4.05;;;1.63;;
66628;SDS011;53532;53.084;6.352;2022-09-29T12:06:33;2.85;;;1.42;;
66628;SDS011;53532;53.084;6.352;2022-09-29T12:09:16;3.65;;;1.65;;
66628;SDS011;53532;53.084;6.352;2022-09-29T12:11:46;3.65;;;1.27;;
66628;SDS011;53532;53.084;6.352;2022-09-29T12:14:17;3.28;;;1.60;;
66628;SDS011;53532;53.084;6.352;2022-09-29T12:16:48;4.38;;;1.73;;
66628;SDS011;53532;53.084;6.352;2022-09-29T12:19:16;3.80;;;1.80;;
66628;SDS011;53532;53.084;6.352;2022-09-29T12:21:45;2.35;;;1.50;;
66628;SDS011;53532;53.084;6.352;2022-09-29T12:24:16;2.40;;;1.50;;
66628;SDS011;53532;53.084;6.352;2022-09-29T12:26:43;3.20;;;1.48;;
66628;SDS011;53532;53.084;6.352;2022-09-29T12:29:15;2.05;;;1.40;;
66628;SDS011;53532;53.084;6.352;2022-09-29T12:31:43;3.08;;;1.40;;
66628;SDS011;53532;53.084;6.352;2022-09-29T12:34:12;2.90;;;1.40;;
66628;SDS011;53532;53.084;6.352;2022-09-29T12:36:41;1.60;;;0.98;;
66628;SDS011;53532;53.084;6.352;2022-09-29T12:39:20;2.67;;;1.20;;
66628;SDS011;53532;53.084;6.352;2022-09-29T12:41:51;3.70;;;1.33;;
66628;SDS011;53532;53.084;6.352;2022-09-29T12:44:19;2.00;;;1.38;;
66628;SDS011;53532;53.084;6.352;2022-09-29T12:46:51;3.35;;;1.20;;
66628;SDS011;53532;53.084;6.352;2022-09-29T12:49:20;2.05;;;1.20;;
66628;SDS011;53532;53.084;6.352;2022-09-29T12:51:47;2.40;;;1.35;;
66628;SDS011;53532;53.084;6.352;2022-09-29T12:54:16;2.95;;;1.27;;
66628;SDS011;53532;53.084;6.352;2022-09-29T12:56:46;4.18;;;1.10;;
66628;SDS011;53532;53.084;6.352;2022-09-29T12:59:15;3.80;;;1.30;;
66628;SDS011;53532;53.084;6.352;2022-09-29T13:01:43;1.73;;;1.08;;
66628;SDS011;53532;53.084;6.352;2022-09-29T13:04:17;3.80;;;1.23;;
66628;SDS011;53532;53.084;6.352;2022-09-29T13:06:50;2.33;;;1.10;;
66628;SDS011;53532;53.084;6.352;2022-09-29T13:09:23;2.90;;;0.80;;
66628;SDS011;53532;53.084;6.352;2022-09-29T13:12:02;1.58;;;0.80;;
66628;SDS011;53532;53.084;6.352;2022-09-29T13:17:20;1.83;;;1.00;;
66628;SDS011;53532;53.084;6.352;2022-09-29T13:19:56;1.95;;;0.90;;
66628;SDS011;53532;53.084;6.352;2022-09-29T13:25:20;1.83;;;0.88;;
66628;SDS011;53532;53.084;6.352;2022-09-29T13:27:49;2.10;;;0.85;;
66628;SDS011;53532;53.084;6.352;2022-09-29T13:30:16;3.60;;;1.00;;
66628;SDS011;53532;53.084;6.352;2022-09-29T13:32:44;2.88;;;1.00;;
66628;SDS011;53532;53.084;6.352;2022-09-29T13:35:13;2.72;;;1.00;;
66628;SDS011;53532;53.084;6.352;2022-09-29T13:37:42;2.63;;;1.00;;
66628;SDS011;53532;53.084;6.352;2022-09-29T13:40:14;5.32;;;1.60;;
66628;SDS011;53532;53.084;6.352;2022-09-29T13:42:42;1.92;;;1.02;;
66628;SDS011;53532;53.084;6.352;2022-09-29T13:50:52;1.58;;;1.10;;
66628;SDS011;53532;53.084;6.352;2022-09-29T13:53:33;4.10;;;1.30;;
66628;SDS011;53532;53.084;6.352;2022-09-29T13:56:08;2.33;;;1.30;;
66628;SDS011;53532;53.084;6.352;2022-09-29T13:58:35;2.20;;;1.25;;
66628;SDS011;53532;53.084;6.352;2022-09-29T14:01:03;2.45;;;1.20;;
66628;SDS011;53532;53.084;6.352;2022-09-29T14:03:31;3.97;;;1.40;;
66628;SDS011;53532;53.084;6.352;2022-09-29T14:08:44;2.03;;;0.85;;
66628;SDS011;53532;53.084;6.352;2022-09-29T14:11:14;1.75;;;0.90;;
66628;SDS011;53532;53.084;6.352;2022-09-29T14:13:45;2.53;;;0.80;;
66628;SDS011;53532;53.084;6.352;2022-09-29T14:16:14;1.73;;;0.80;;
66628;SDS011;53532;53.084;6.352;2022-09-29T14:18:42;1.05;;;0.80;;
66628;SDS011;53532;53.084;6.352;2022-09-29T14:21:10;2.20;;;0.70;;
66628;SDS011;53532;53.084;6.352;2022-09-29T14:23:48;2.65;;;0.80;;
66628;SDS011;53532;53.084;6.352;2022-09-29T14:29:00;2.47;;;1.10;;
66628;SDS011;53532;53.084;6.352;2022-09-29T14:31:27;7.45;;;1.60;;
66628;SDS011;53532;53.084;6.352;2022-09-29T14:33:55;4.22;;;1.17;;
66628;SDS011;53532;53.084;6.352;2022-09-29T14:36:22;2.05;;;0.90;;
66628;SDS011;53532;53.084;6.352;2022-09-29T14:38:52;2.03;;;1.10;;
66628;SDS011;53532;53.084;6.352;2022-09-29T14:41:24;3.22;;;1.10;;
66628;SDS011;53532;53.084;6.352;2022-09-29T14:43:51;2.10;;;1.13;;
66628;SDS011;53532;53.084;6.352;2022-09-29T14:46:22;2.22;;;1.13;;
66628;SDS011;53532;53.084;6.352;2022-09-29T14:49:21;2.63;;;1.30;;
66628;SDS011;53532;53.084;6.352;2022-09-29T14:52:12;2.05;;;1.13;;
66628;SDS011;53532;53.084;6.352;2022-09-29T14:54:44;0.93;;;0.50;;
66628;SDS011;53532;53.084;6.352;2022-09-29T14:57:21;0.98;;;0.50;;
66628;SDS011;53532;53.084;6.352;2022-09-29T14:59:53;0.73;;;0.50;;
66628;SDS011;53532;53.084;6.352;2022-09-29T15:02:24;0.93;;;0.47;;
66628;SDS011;53532;53.084;6.352;2022-09-29T15:04:53;1.25;;;0.68;;
66628;SDS011;53532;53.084;6.352;2022-09-29T15:07:19;0.60;;;0.60;;
66628;SDS011;53532;53.084;6.352;2022-09-29T15:09:48;1.35;;;0.80;;